Low temp

Not for real navigation. The accuracy of this data is not assured See disclaimer for more information



ICAO NAME COUNTRY WIND Kt GUST Kt VIS m TEMP/DEW C BARO METAR
NZSP Amundsen-Scott South Pole Stat Antarctica 15 22 800 -42/0 29.18 NZSP 181150Z 01015G22KT 0800 -SG BLSN SCT000 BKN010 OVC060 M42/ A2918 RMK BLSN SCT000 CLN AIR 01016G
KVBS Sabine 13B LA United States 11 26 1600 -40/0 29.95 KVBS 181235Z AUTO 10011G26KT 080V140 1 0.5SM BR VV007 M40/ A2995 RMK A01
KJZP 4 0 9999 -37/-39 30.23 KJZP 181235Z AUTO 34004KT 10SM CAVOK M37/M39 A3023 RMK AO2 T13691392 PNO
NZCM Williams Field Antarctica 12 28 9999 -11/-20 29.46 NZCM 181155Z 13012G28KT 9999 BKN070 OVC120 M11/M20 A2946 RMK PK WND 17029/0648 SNE0720 SLP983
SCRM 12 0 5000 -7/-8 29.15 SCRM 181200Z 10012KT 5000 -SN OVC015 M07/M08 Q0987

Show more